Time;durP1;ratioP1;P1;durP2;ratioP2;P2;SDS_P1;SDS_P2;PMS_P1;PMS_P2;Temp;Humidity;BMP_temperature;BMP_pressure;BME280_temperature;BME280_humidity;BME280_pressure;Samples;Min_cycle;Max_cycle;Signal;HPM_P1;HPM_P2
2023/07/09 04:01:36;;;;;;;;;;;20.10;99.90;;;;;;5475381;23;19925;-80
2023/07/09 04:04:02;;;;;;;;;;;20.20;99.90;;;;;;5013756;28;19963;-78
2023/07/09 04:06:28;;;;;;;;;;;20.20;99.90;;;;;;5013697;28;20353;-80
2023/07/09 04:08:54;;;;;;;;;;;20.20;99.90;;;;;;5013758;28;20286;-77
2023/07/09 04:11:22;;;;;;;;;;;20.20;99.90;;;;;;5014841;28;19956;-76
2023/07/09 04:13:48;;;;;;;;;;;20.30;99.90;;;;;;5013444;28;19917;-76
2023/07/09 04:16:13;;;;;;;;;;;20.30;99.90;;;;;;5013624;28;19918;-80
2023/07/09 04:18:39;;;;;;;;;;;20.30;99.90;;;;;;5013391;28;19917;-80
2023/07/09 04:21:04;;;;;;;;;;;20.30;99.90;;;;;;5013523;28;19924;-82
2023/07/09 04:23:30;;;;;;;;;;;20.40;99.90;;;;;;5014998;28;19917;-78
2023/07/09 04:25:56;;;;;;;;;;;20.40;99.90;;;;;;5014869;28;19964;-77
2023/07/09 04:28:21;;;;;;;;;;;20.50;99.90;;;;;;5013587;28;19917;-76
2023/07/09 04:30:51;;;;;;;;;;;20.50;99.90;;;;;;5013476;28;19921;-80
2023/07/09 04:33:17;;;;;;;;;;;20.50;99.90;;;;;;5013632;28;19918;-82
2023/07/09 04:35:46;;;;;;;;;;;20.60;99.90;;;;;;5013377;28;19917;-80
2023/07/09 04:38:12;;;;;;;;;;;20.60;99.90;;;;;;5013293;28;20020;-82
2023/07/09 04:40:37;;;;;;;;;;;20.70;99.90;;;;;;5013335;28;20389;-80
2023/07/09 04:43:03;;;;;;;;;;;20.70;99.90;;;;;;5013576;28;19941;-78
2023/07/09 04:45:28;;;;;;;;;;;20.70;99.90;;;;;;5014471;28;19922;-75
2023/07/09 04:47:54;;;;;;;;;;;20.70;99.90;;;;;;5014471;28;19923;-82
2023/07/09 04:50:19;;;;;;;;;;;20.70;99.90;;;;;;5013444;28;19917;-79
2023/07/09 04:52:45;;;;;;;;;;;20.80;99.90;;;;;;5013386;28;19922;-77
2023/07/09 04:55:10;;;;;;;;;;;20.80;99.90;;;;;;5013315;28;19964;-83
2023/07/09 04:57:36;;;;;;;;;;;20.90;99.90;;;;;;5012882;28;19917;-78
2023/07/09 05:00:04;;;;;;;;;;;20.90;99.90;;;;;;5013315;28;20328;-79
2023/07/09 05:02:30;;;;;;;;;;;21.00;99.90;;;;;;5014549;28;19917;-80
2023/07/09 05:04:56;;;;;;;;;;;21.00;99.90;;;;;;5014759;28;20383;-80
2023/07/09 05:07:21;;;;;;;;;;;21.00;99.90;;;;;;5013591;28;19925;-77
2023/07/09 05:09:47;;;;;;;;;;;21.00;99.90;;;;;;5013170;28;20329;-81
2023/07/09 05:12:13;;;;;;;;;;;21.10;99.90;;;;;;4996639;28;19967;-80
2023/07/09 05:14:38;;;;;;;;;;;21.10;99.90;;;;;;5014212;28;19917;-82
2023/07/09 05:17:04;;;;;;;;;;;21.10;99.90;;;;;;5012982;28;20266;-78
2023/07/09 05:19:30;;;;;;;;;;;21.10;99.90;;;;;;5013191;28;19924;-78
2023/07/09 05:21:55;;;;;;;;;;;21.10;99.90;;;;;;5014928;28;19996;-80
2023/07/09 05:24:21;;;;;;;;;;;21.10;99.90;;;;;;5013199;28;19925;-80
2023/07/09 05:26:46;;;;;;;;;;;21.20;99.90;;;;;;5013332;28;20356;-83
2023/07/09 05:29:13;;;;;;;;;;;21.20;99.90;;;;;;5012819;28;20324;-77
2023/07/09 05:31:38;;;;;;;;;;;21.10;99.90;;;;;;5014414;28;19917;-82
2023/07/09 05:34:04;;;;;;;;;;;21.10;99.90;;;;;;5013095;28;19971;-82
2023/07/09 05:36:30;;;;;;;;;;;21.20;99.90;;;;;;5012871;28;19924;-76
2023/07/09 05:38:56;;;;;;;;;;;21.20;99.90;;;;;;5012875;28;20032;-79
2023/07/09 05:41:21;;;;;;;;;;;21.10;99.90;;;;;;5012638;28;19933;-81
2023/07/09 05:43:49;;;;;;;;;;;21.10;99.90;;;;;;5012752;28;19925;-81
2023/07/09 05:46:14;;;;;;;;;;;21.10;99.90;;;;;;4996171;28;19918;-79
2023/07/09 05:48:40;;;;;;;;;;;21.20;99.90;;;;;;5012304;28;19973;-79
2023/07/09 05:51:05;;;;;;;;;;;21.10;99.90;;;;;;5015450;28;19921;-82
2023/07/09 05:53:34;;;;;;;;;;;21.20;99.90;;;;;;5016255;28;19967;-81
2023/07/09 05:56:00;;;;;;;;;;;21.20;99.90;;;;;;5015788;28;19917;-78
2023/07/09 05:58:25;;;;;;;;;;;21.20;99.90;;;;;;5015634;28;19922;-79
2023/07/09 06:00:56;;;;;;;;;;;21.20;99.90;;;;;;4998988;28;19924;-81
2023/07/09 06:03:22;;;;;;;;;;;21.20;99.90;;;;;;5015949;28;19921;-80
2023/07/09 06:05:49;;;;;;;;;;;21.30;99.90;;;;;;5016827;28;19917;-79
2023/07/09 06:08:15;;;;;;;;;;;21.30;99.90;;;;;;5017395;28;19917;-80
2023/07/09 06:10:50;;;;;;;;;;;21.30;99.90;;;;;;5015998;28;20330;-79
2023/07/09 06:13:15;;;;;;;;;;;21.40;99.90;;;;;;5015678;28;19971;-78
2023/07/09 06:15:41;;;;;;;;;;;21.50;99.90;;;;;;5016807;28;19960;-80
2023/07/09 06:18:06;;;;;;;;;;;21.50;99.90;;;;;;5016606;28;19961;-75
2023/07/09 06:20:32;;;;;;;;;;;21.50;99.90;;;;;;5016723;28;20420;-78
2023/07/09 06:22:57;;;;;;;;;;;21.60;99.90;;;;;;5017142;28;19918;-82
2023/07/09 06:25:23;;;;;;;;;;;21.60;99.90;;;;;;5015466;28;19921;-79
2023/07/09 06:27:48;;;;;;;;;;;21.70;99.90;;;;;;5017038;28;19982;-77
2023/07/09 06:30:14;;;;;;;;;;;21.70;99.90;;;;;;5015424;28;20415;-80
2023/07/09 06:32:39;;;;;;;;;;;21.70;99.90;;;;;;5015609;28;19939;-80
2023/07/09 06:35:05;;;;;;;;;;;21.80;99.90;;;;;;5015602;28;19968;-82
2023/07/09 06:37:30;;;;;;;;;;;21.90;99.90;;;;;;5015108;28;19980;-76
2023/07/09 06:39:56;;;;;;;;;;;22.00;99.90;;;;;;5015241;28;19961;-80
2023/07/09 06:42:21;;;;;;;;;;;22.00;99.90;;;;;;5014879;28;19964;-80
2023/07/09 06:44:47;;;;;;;;;;;22.10;99.90;;;;;;5016010;28;19925;-82
2023/07/09 06:47:12;;;;;;;;;;;22.20;99.90;;;;;;4998637;28;19925;-78
2023/07/09 06:49:38;;;;;;;;;;;22.30;99.90;;;;;;5016222;28;19924;-78
2023/07/09 06:52:04;;;;;;;;;;;22.40;99.90;;;;;;5014680;28;19923;-81
2023/07/09 06:54:29;;;;;;;;;;;22.50;99.90;;;;;;5014944;28;19917;-80
2023/07/09 06:56:55;;;;;;;;;;;22.60;99.90;;;;;;5014659;28;20326;-83
2023/07/09 06:59:20;;;;;;;;;;;22.60;99.90;;;;;;5014414;28;19921;-75
2023/07/09 07:01:46;;;;;;;;;;;22.70;99.90;;;;;;5014043;28;20004;-78
2023/07/09 07:04:11;;;;;;;;;;;22.70;99.90;;;;;;5014593;28;19921;-78
2023/07/09 07:06:37;;;;;;;;;;;22.80;99.90;;;;;;5014576;28;19918;-81
2023/07/09 07:09:03;;;;;;;;;;;22.90;99.90;;;;;;5014514;28;19924;-82
2023/07/09 07:11:30;;;;;;;;;;;23.00;99.90;;;;;;4998174;28;19917;-80
2023/07/09 07:13:55;;;;;;;;;;;23.00;99.90;;;;;;5014654;28;20048;-78
2023/07/09 07:16:22;;;;;;;;;;;23.10;99.90;;;;;;5014311;28;19971;-79
2023/07/09 07:18:48;;;;;;;;;;;23.20;99.90;;;;;;5015478;28;20011;-76
2023/07/09 07:21:13;;;;;;;;;;;23.30;99.90;;;;;;5013820;28;20006;-78
2023/07/09 07:23:39;;;;;;;;;;;23.40;99.90;;;;;;5014228;28;19973;-81
2023/07/09 07:26:04;;;;;;;;;;;23.40;99.90;;;;;;5014599;28;20361;-79
2023/07/09 07:28:30;;;;;;;;;;;23.50;99.90;;;;;;5015396;28;20544;-79
2023/07/09 07:31:03;;;;;;;;;;;23.50;99.90;;;;;;5013990;28;19921;-80
2023/07/09 07:33:29;;;;;;;;;;;23.60;99.90;;;;;;5015343;28;19923;-73
2023/07/09 07:35:54;;;;;;;;;;;23.60;99.90;;;;;;5014249;28;20000;-81
2023/07/09 07:38:20;;;;;;;;;;;23.70;99.90;;;;;;5013988;28;19920;-81
2023/07/09 07:40:46;;;;;;;;;;;23.90;99.90;;;;;;5013714;28;19964;-77
2023/07/09 07:43:11;;;;;;;;;;;23.90;99.90;;;;;;5014078;28;19924;-76
2023/07/09 07:45:40;;;;;;;;;;;23.90;99.90;;;;;;5013658;28;20411;-77
2023/07/09 07:48:06;;;;;;;;;;;24.00;99.90;;;;;;5015299;28;19921;-78
2023/07/09 07:50:31;;;;;;;;;;;24.00;99.90;;;;;;5014828;28;19983;-77
2023/07/09 07:52:57;;;;;;;;;;;24.10;99.90;;;;;;5015113;28;19918;-76
2023/07/09 07:55:22;;;;;;;;;;;24.10;99.90;;;;;;5013693;28;20020;-82
2023/07/09 07:57:48;;;;;;;;;;;24.20;99.90;;;;;;5015120;28;19956;-82
2023/07/09 08:00:14;;;;;;;;;;;24.20;99.90;;;;;;5014797;28;19980;-78
2023/07/09 08:02:39;;;;;;;;;;;24.20;99.90;;;;;;5013519;28;19947;-79
2023/07/09 08:05:05;;;;;;;;;;;24.20;99.90;;;;;;5013325;28;19932;-76
2023/07/09 08:07:31;;;;;;;;;;;24.20;99.90;;;;;;5013385;28;20014;-82
2023/07/09 08:09:57;;;;;;;;;;;24.30;99.90;;;;;;5015103;28;19917;-77
2023/07/09 08:12:22;;;;;;;;;;;24.40;99.90;;;;;;5014040;28;19924;-78
2023/07/09 08:14:48;;;;;;;;;;;24.40;99.90;;;;;;5013646;28;19917;-77
2023/07/09 08:17:13;;;;;;;;;;;24.50;99.90;;;;;;5015135;28;20308;-81
2023/07/09 08:19:46;;;;;;;;;;;24.60;99.90;;;;;;5013161;28;19917;-78
2023/07/09 08:22:12;;;;;;;;;;;24.70;99.90;;;;;;5013207;28;20364;-77
2023/07/09 08:24:37;;;;;;;;;;;24.90;99.90;;;;;;5014393;28;19925;-78
2023/07/09 08:27:05;;;;;;;;;;;25.00;99.90;;;;;;5014247;28;19932;-76
2023/07/09 08:29:31;;;;;;;;;;;25.10;99.90;;;;;;5013085;28;19967;-77
2023/07/09 08:31:56;;;;;;;;;;;25.10;99.90;;;;;;5012910;28;19968;-74
2023/07/09 08:34:22;;;;;;;;;;;25.20;99.90;;;;;;5013319;28;19986;-76
2023/07/09 08:36:47;;;;;;;;;;;25.30;99.90;;;;;;5014708;28;20380;-79
2023/07/09 08:39:15;;;;;;;;;;;25.50;99.90;;;;;;4996539;28;20280;-80
2023/07/09 08:42:04;;;;;;;;;;;25.60;99.90;;;;;;5014359;28;19917;-78
2023/07/09 08:44:35;;;;;;;;;;;25.70;99.90;;;;;;5010316;28;19923;-79
2023/07/09 08:47:01;;;;;;;;;;;25.80;99.90;;;;;;5014865;28;20369;-78
2023/07/09 08:49:33;;;;;;;;;;;25.90;99.90;;;;;;5012941;28;19918;-77
2023/07/09 08:51:59;;;;;;;;;;;25.90;99.90;;;;;;5014464;28;19925;-82
2023/07/09 08:54:31;;;;;;;;;;;26.00;99.90;;;;;;5012612;28;19918;-81
2023/07/09 08:56:59;;;;;;;;;;;26.10;99.90;;;;;;5014425;28;19917;-75
2023/07/09 08:59:25;;;;;;;;;;;26.10;99.90;;;;;;5013956;28;19924;-81
2023/07/09 09:01:52;;;;;;;;;;;26.10;99.90;;;;;;5012704;28;19923;-81
2023/07/09 09:04:28;;;;;;;;;;;26.20;99.90;;;;;;5012621;28;19925;-76
2023/07/09 09:07:08;;;;;;;;;;;26.20;99.90;;;;;;5014311;28;20393;-74
2023/07/09 09:09:38;;;;;;;;;;;26.30;99.90;;;;;;5012800;28;19960;-78
2023/07/09 09:12:18;;;;;;;;;;;26.30;99.90;;;;;;5012945;28;20272;-76
2023/07/09 09:14:44;;;;;;;;;;;26.40;99.90;;;;;;5012848;28;20365;-79
2023/07/09 09:17:12;;;;;;;;;;;26.50;99.90;;;;;;5012386;28;19957;-75
2023/07/09 09:19:43;;;;;;;;;;;26.60;99.90;;;;;;5012768;28;19968;-79
2023/07/09 09:22:11;;;;;;;;;;;26.70;99.90;;;;;;5012558;28;19917;-79
2023/07/09 09:24:55;;;;;;;;;;;26.80;99.90;;;;;;5016750;28;19922;-76
2023/07/09 09:27:21;;;;;;;;;;;26.90;99.90;;;;;;5016071;28;20436;-78
2023/07/09 09:29:46;;;;;;;;;;;27.00;99.90;;;;;;5017667;28;20008;-78
2023/07/09 09:32:30;;;;;;;;;;;27.00;99.90;;;;;;5016205;28;20328;-80
2023/07/09 09:34:55;;;;;;;;;;;27.10;99.90;;;;;;5016555;28;20521;-80
2023/07/09 09:37:31;;;;;;;;;;;27.20;99.90;;;;;;5017290;28;19928;-80
2023/07/09 09:39:58;;;;;;;;;;;27.30;99.90;;;;;;5016260;28;20016;-77
2023/07/09 09:42:25;;;;;;;;;;;27.40;99.90;;;;;;5015921;28;19924;-77
2023/07/09 09:44:53;;;;;;;;;;;27.50;99.90;;;;;;5016119;28;20020;-77
2023/07/09 09:47:18;;;;;;;;;;;27.50;99.90;;;;;;5017368;28;19917;-78
2023/07/09 09:49:44;;;;;;;;;;;27.70;99.90;;;;;;5017280;28;19917;-77
2023/07/09 09:52:14;;;;;;;;;;;27.80;99.90;;;;;;5017128;28;19917;-78
2023/07/09 09:54:40;;;;;;;;;;;27.90;99.90;;;;;;5017091;28;20011;-77
2023/07/09 09:57:35;;;;;;;;;;;28.00;99.90;;;;;;5016001;28;19927;-78
2023/07/09 10:00:02;;;;;;;;;;;28.10;99.90;;;;;;5011378;28;19917;-82
2023/07/09 10:02:27;;;;;;;;;;;28.10;99.90;;;;;;5016869;28;19921;-83
2023/07/09 10:04:53;;;;;;;;;;;28.10;99.90;;;;;;5017092;28;20280;-75
2023/07/09 10:07:23;;;;;;;;;;;28.20;99.90;;;;;;5015964;28;20424;-78
2023/07/09 10:09:52;;;;;;;;;;;28.30;99.90;;;;;;5014980;28;19917;-81
2023/07/09 10:12:28;;;;;;;;;;;28.30;99.90;;;;;;5015747;28;19944;-82
2023/07/09 10:14:54;;;;;;;;;;;28.40;99.90;;;;;;5016607;28;20005;-79
2023/07/09 10:17:22;;;;;;;;;;;28.30;99.90;;;;;;5016713;28;20360;-83
2023/07/09 10:19:59;;;;;;;;;;;28.40;99.90;;;;;;5016992;28;19917;-80
2023/07/09 10:22:33;;;;;;;;;;;28.40;99.90;;;;;;5016927;28;19918;-78
2023/07/09 10:25:02;;;;;;;;;;;28.50;99.90;;;;;;5015219;28;19972;-82
2023/07/09 10:27:31;;;;;;;;;;;28.60;99.90;;;;;;5015214;28;19944;-78
2023/07/09 10:30:19;;;;;;;;;;;28.70;99.90;;;;;;5015302;28;20008;-77
2023/07/09 10:32:51;;;;;;;;;;;28.80;99.90;;;;;;5016682;28;19932;-82
2023/07/09 10:35:26;;;;;;;;;;;28.90;99.90;;;;;;5016104;28;19918;-81
2023/07/09 10:37:52;;;;;;;;;;;29.00;99.90;;;;;;5015083;28;19918;-78
2023/07/09 10:40:31;;;;;;;;;;;29.00;99.90;;;;;;5016293;28;20003;-77
2023/07/09 10:42:58;;;;;;;;;;;29.10;99.90;;;;;;5015287;28;19928;-78
2023/07/09 10:45:28;;;;;;;;;;;29.20;99.90;;;;;;5015096;28;19971;-78
2023/07/09 10:48:10;;;;;;;;;;;29.20;99.90;;;;;;5015356;28;19917;-78
2023/07/09 10:50:45;;;;;;;;;;;29.20;99.90;;;;;;4999708;28;19917;-80
2023/07/09 10:53:13;;;;;;;;;;;29.20;99.90;;;;;;5016694;28;19917;-78
2023/07/09 10:55:48;;;;;;;;;;;29.30;99.90;;;;;;5016435;28;19924;-78
2023/07/09 10:58:23;;;;;;;;;;;29.40;99.90;;;;;;5014748;28;19917;-79
2023/07/09 11:00:48;;;;;;;;;;;29.40;99.90;;;;;;4996344;28;19968;-80
2023/07/09 11:03:19;;;;;;;;;;;29.40;99.90;;;;;;5026945;28;19917;-79
2023/07/09 11:05:46;;;;;;;;;;;29.50;99.90;;;;;;5013255;28;19929;-81
2023/07/09 11:08:30;;;;;;;;;;;29.50;99.90;;;;;;5038995;28;20007;-77
2023/07/09 11:10:58;;;;;;;;;;;29.60;99.90;;;;;;5016633;28;19927;-81
2023/07/09 11:13:29;;;;;;;;;;;29.60;99.90;;;;;;5015518;28;20376;-78
2023/07/09 11:15:56;;;;;;;;;;;29.70;99.90;;;;;;5014986;28;19975;-79
2023/07/09 11:18:26;;;;;;;;;;;29.70;99.90;;;;;;4997252;28;20369;-79
2023/07/09 11:21:04;;;;;;;;;;;29.80;99.90;;;;;;5014793;28;19917;-81
2023/07/09 11:23:37;;;;;;;;;;;29.90;99.90;;;;;;5012048;28;20377;-81
2023/07/09 11:26:02;;;;;;;;;;;29.90;99.90;;;;;;5015298;28;20032;-80
2023/07/09 11:28:35;;;;;;;;;;;29.90;99.90;;;;;;5013789;28;19968;-77
2023/07/09 11:31:08;;;;;;;;;;;30.00;99.90;;;;;;5013837;28;19996;-77
2023/07/09 11:33:34;;;;;;;;;;;30.10;99.90;;;;;;4997516;28;20428;-79
2023/07/09 11:36:07;;;;;;;;;;;30.20;99.90;;;;;;5015392;28;19960;-81
2023/07/09 11:38:43;;;;;;;;;;;30.20;99.90;;;;;;5015293;28;20427;-78
2023/07/09 11:41:24;;;;;;;;;;;30.30;99.90;;;;;;5014022;28;19979;-80
2023/07/09 11:43:50;;;;;;;;;;;30.40;99.90;;;;;;5023362;28;20280;-79
2023/07/09 11:46:21;;;;;;;;;;;30.40;99.90;;;;;;5023854;28;19922;-81
2023/07/09 11:48:48;;;;;;;;;;;30.50;99.90;;;;;;5027518;28;19966;-78
2023/07/09 11:51:17;;;;;;;;;;;30.50;99.90;;;;;;5034224;28;19974;-77
2023/07/09 11:53:45;;;;;;;;;;;30.50;99.90;;;;;;5033249;28;20364;-80
2023/07/09 11:56:11;;;;;;;;;;;30.50;99.90;;;;;;5021318;28;20003;-80
2023/07/09 11:58:47;;;;;;;;;;;30.60;99.90;;;;;;5013299;28;19961;-77
2023/07/09 12:01:15;;;;;;;;;;;30.70;99.90;;;;;;5013421;28;20269;-80
2023/07/09 12:03:42;;;;;;;;;;;30.80;99.90;;;;;;5013358;28;19917;-77
2023/07/09 12:06:26;;;;;;;;;;;30.90;99.90;;;;;;5014042;28;19917;-80
2023/07/09 12:08:52;;;;;;;;;;;30.90;99.90;;;;;;5013585;28;20217;-79
2023/07/09 12:11:22;;;;;;;;;;;31.00;99.90;;;;;;4996991;28;19980;-78
2023/07/09 12:13:47;;;;;;;;;;;31.10;99.90;;;;;;4996611;28;19917;-80
2023/07/09 12:16:27;;;;;;;;;;;31.10;99.90;;;;;;5012890;28;19968;-77
2023/07/09 12:18:53;;;;;;;;;;;31.10;99.90;;;;;;5021148;28;20503;-80
2023/07/09 12:21:19;;;;;;;;;;;31.10;99.90;;;;;;5034008;28;20000;-81
2023/07/09 12:23:44;;;;;;;;;;;31.20;99.90;;;;;;5032941;28;19963;-79
2023/07/09 12:26:12;;;;;;;;;;;31.20;99.90;;;;;;5016457;28;19925;-76
2023/07/09 12:28:38;;;;;;;;;;;31.20;99.90;;;;;;5032814;28;19917;-78
2023/07/09 12:31:03;;;;;;;;;;;31.20;99.90;;;;;;5032576;28;19916;-80
2023/07/09 12:33:29;;;;;;;;;;;31.30;99.90;;;;;;5034594;28;20007;-78
2023/07/09 12:35:59;;;;;;;;;;;31.40;99.90;;;;;;5033916;28;20428;-81
2023/07/09 12:38:26;;;;;;;;;;;31.50;99.90;;;;;;5032741;28;19917;-79
2023/07/09 12:40:52;;;;;;;;;;;31.40;99.90;;;;;;5032961;28;19966;-78
2023/07/09 12:43:22;;;;;;;;;;;31.40;99.90;;;;;;5032608;28;19917;-80
2023/07/09 12:45:48;;;;;;;;;;;31.40;99.90;;;;;;5032319;28;20384;-79
2023/07/09 12:48:13;;;;;;;;;;;31.20;99.90;;;;;;5016261;28;19917;-80
2023/07/09 12:50:39;;;;;;;;;;;31.20;99.90;;;;;;5034346;28;19924;-80
2023/07/09 12:53:14;;;;;;;;;;;31.20;99.90;;;;;;5032460;28;19917;-77
2023/07/09 12:55:41;;;;;;;;;;;31.30;99.90;;;;;;5032709;28;20027;-77
2023/07/09 12:58:11;;;;;;;;;;;31.30;99.90;;;;;;5034380;28;19921;-77
2023/07/09 13:00:37;;;;;;;;;;;31.10;99.90;;;;;;5020345;28;19928;-80
2023/07/09 13:03:03;;;;;;;;;;;30.90;99.90;;;;;;5036553;28;20336;-78
2023/07/09 13:05:28;;;;;;;;;;;30.80;99.90;;;;;;5037734;28;20315;-78
2023/07/09 13:07:57;;;;;;;;;;;30.70;99.90;;;;;;5037581;28;19916;-79
2023/07/09 13:10:28;;;;;;;;;;;30.60;99.90;;;;;;5037777;28;19947;-79
2023/07/09 13:12:55;;;;;;;;;;;30.60;99.90;;;;;;5036166;28;19924;-80
2023/07/09 13:15:25;;;;;;;;;;;30.50;99.90;;;;;;5035974;28;19995;-80
2023/07/09 13:17:56;;;;;;;;;;;30.50;99.90;;;;;;5036088;28;19917;-77
2023/07/09 13:20:22;;;;;;;;;;;30.60;99.90;;;;;;5036021;28;19916;-79
2023/07/09 13:22:47;;;;;;;;;;;30.70;99.90;;;;;;5036116;28;19983;-77
2023/07/09 13:25:13;;;;;;;;;;;30.60;99.90;;;;;;5035753;28;20368;-79
2023/07/09 13:27:38;;;;;;;;;;;30.50;99.90;;;;;;5020240;28;19916;-80
2023/07/09 13:30:04;;;;;;;;;;;30.40;99.90;;;;;;5036211;28;19917;-79
2023/07/09 13:32:29;;;;;;;;;;;30.30;99.90;;;;;;5035755;28;19948;-79
2023/07/09 13:34:55;;;;;;;;;;;30.20;99.90;;;;;;5036028;28;19921;-77
2023/07/09 13:37:20;;;;;;;;;;;30.00;99.90;;;;;;5019438;28;20276;-77
2023/07/09 13:39:46;;;;;;;;;;;30.10;99.90;;;;;;5036842;28;19924;-81
2023/07/09 13:42:13;;;;;;;;;;;30.10;99.90;;;;;;5019444;28;19964;-81
2023/07/09 13:44:40;;;;;;;;;;;30.00;99.90;;;;;;5036754;28;19971;-79
2023/07/09 13:47:09;;;;;;;;;;;29.90;99.90;;;;;;5035720;28;20045;-77
2023/07/09 13:49:35;;;;;;;;;;;29.90;99.90;;;;;;5035504;28;19967;-78
2023/07/09 13:52:01;;;;;;;;;;;29.90;99.90;;;;;;5035475;28;19921;-80
2023/07/09 13:54:31;;;;;;;;;;;29.80;99.90;;;;;;5035472;28;19924;-81
2023/07/09 13:56:57;;;;;;;;;;;29.80;99.90;;;;;;5018888;28;19924;-81
2023/07/09 13:59:23;;;;;;;;;;;29.90;99.90;;;;;;5035330;28;19917;-78
2023/07/09 14:01:49;;;;;;;;;;;29.90;99.90;;;;;;5035293;28;19952;-80
2023/07/09 14:04:16;;;;;;;;;;;29.90;99.90;;;;;;5036844;28;20020;-79
2023/07/09 14:06:42;;;;;;;;;;;29.80;99.90;;;;;;5035366;28;20003;-80
2023/07/09 14:09:09;;;;;;;;;;;29.70;99.90;;;;;;5035213;28;19959;-80
2023/07/09 14:11:36;;;;;;;;;;;29.60;99.90;;;;;;5034606;28;19917;-78
2023/07/09 14:14:04;;;;;;;;;;;29.40;99.90;;;;;;5036015;28;19921;-77
2023/07/09 14:16:30;;;;;;;;;;;29.30;99.90;;;;;;5035338;28;19917;-81
2023/07/09 14:18:55;;;;;;;;;;;29.10;99.90;;;;;;5035062;28;20296;-78
2023/07/09 14:21:24;;;;;;;;;;;29.10;99.90;;;;;;5034879;28;19928;-81
2023/07/09 14:23:49;;;;;;;;;;;28.90;99.90;;;;;;5036407;28;19964;-78
2023/07/09 14:26:15;;;;;;;;;;;28.70;99.90;;;;;;5034717;28;19998;-79
2023/07/09 14:28:40;;;;;;;;;;;28.60;99.90;;;;;;5034812;28;19925;-80
2023/07/09 14:31:18;;;;;;;;;;;28.40;99.90;;;;;;5034709;28;19921;-80
2023/07/09 14:33:44;;;;;;;;;;;28.30;99.90;;;;;;5034831;28;19917;-79
2023/07/09 14:36:09;;;;;;;;;;;28.20;99.90;;;;;;5035695;28;19983;-79
2023/07/09 14:38:35;;;;;;;;;;;28.10;99.90;;;;;;5035625;28;20355;-79
2023/07/09 14:41:04;;;;;;;;;;;27.90;99.90;;;;;;5034370;28;19917;-74
2023/07/09 14:43:29;;;;;;;;;;;27.80;99.90;;;;;;5035670;28;19917;-77
2023/07/09 14:45:55;;;;;;;;;;;27.50;99.90;;;;;;5036681;28;20361;-79
2023/07/09 14:48:20;;;;;;;;;;;27.20;99.90;;;;;;5034152;28;20428;-75
2023/07/09 14:50:47;;;;;;;;;;;26.60;99.90;;;;;;5035796;28;20011;-80
2023/07/09 14:53:24;;;;;;;;;;;26.10;99.90;;;;;;5033973;28;20349;-77
2023/07/09 14:55:50;;;;;;;;;;;25.60;99.90;;;;;;5013385;28;19917;-79
2023/07/09 14:58:19;;;;;;;;;;;25.10;99.90;;;;;;4995611;28;19964;-77
2023/07/09 15:00:46;;;;;;;;;;;24.40;99.90;;;;;;5030450;28;19921;-76
2023/07/09 15:03:17;;;;;;;;;;;24.00;99.90;;;;;;5013508;28;19932;-80
2023/07/09 15:05:42;;;;;;;;;;;23.70;99.90;;;;;;5014005;28;19976;-77
2023/07/09 15:08:15;;;;;;;;;;;23.60;99.90;;;;;;5016852;28;19960;-79
2023/07/09 15:10:41;;;;;;;;;;;23.50;99.90;;;;;;5012342;28;20008;-76
2023/07/09 15:13:15;;;;;;;;;;;23.20;99.90;;;;;;5015340;28;20007;-79
2023/07/09 15:15:41;;;;;;;;;;;23.00;99.90;;;;;;5014415;28;19917;-78
2023/07/09 15:18:10;;;;;;;;;;;23.00;99.90;;;;;;5014340;28;19917;-81
2023/07/09 15:20:36;;;;;;;;;;;22.90;99.90;;;;;;5015190;28;19917;-78
2023/07/09 15:23:02;;;;;;;;;;;22.90;99.90;;;;;;5014008;28;20263;-79
2023/07/09 15:25:28;;;;;;;;;;;22.90;99.90;;;;;;5013896;28;19921;-75
2023/07/09 15:27:56;;;;;;;;;;;22.80;99.90;;;;;;5015047;28;20382;-74
2023/07/09 15:30:24;;;;;;;;;;;22.80;99.90;;;;;;5013954;28;20233;-76
2023/07/09 15:32:49;;;;;;;;;;;22.80;99.90;;;;;;5015078;28;19923;-80
2023/07/09 15:35:16;;;;;;;;;;;22.70;99.90;;;;;;5013315;28;20284;-78
2023/07/09 15:37:42;;;;;;;;;;;22.70;99.90;;;;;;5014471;28;20401;-77
2023/07/09 15:40:33;;;;;;;;;;;22.70;99.90;;;;;;5014543;28;20017;-77
2023/07/09 15:43:08;;;;;;;;;;;22.60;99.90;;;;;;5007223;28;19925;-81
2023/07/09 15:45:37;;;;;;;;;;;22.60;99.90;;;;;;5013040;28;19922;-79
2023/07/09 15:48:03;;;;;;;;;;;22.60;99.90;;;;;;5014497;28;20380;-77
2023/07/09 15:50:30;;;;;;;;;;;22.60;99.90;;;;;;5012985;28;19924;-79
2023/07/09 15:52:56;;;;;;;;;;;22.50;99.90;;;;;;5013386;28;19948;-75
2023/07/09 15:55:24;;;;;;;;;;;22.50;99.90;;;;;;5014234;28;19917;-78
2023/07/09 15:57:51;;;;;;;;;;;22.50;99.90;;;;;;5012879;28;20399;-81
2023/07/09 16:00:18;;;;;;;;;;;22.40;99.90;;;;;;5012987;28;20408;-76
2023/07/09 16:02:44;;;;;;;;;;;22.30;99.90;;;;;;5014516;28;19924;-75
2023/07/09 16:05:20;;;;;;;;;;;22.30;99.90;;;;;;5012816;28;19921;-77
2023/07/09 16:07:46;;;;;;;;;;;22.30;99.90;;;;;;4996652;28;19928;-75
2023/07/09 16:10:12;;;;;;;;;;;22.20;99.90;;;;;;5014210;28;19917;-79
2023/07/09 16:12:38;;;;;;;;;;;22.20;99.90;;;;;;5012417;28;19917;-79
2023/07/09 16:15:04;;;;;;;;;;;22.20;99.90;;;;;;5012894;28;19967;-78
2023/07/09 16:17:29;;;;;;;;;;;22.10;99.90;;;;;;5014319;28;19917;-79
2023/07/09 16:19:55;;;;;;;;;;;22.10;99.90;;;;;;5014327;28;19963;-74
2023/07/09 16:22:21;;;;;;;;;;;22.00;99.90;;;;;;5014080;28;20004;-78
2023/07/09 16:24:47;;;;;;;;;;;22.00;99.90;;;;;;5014329;28;19921;-73
2023/07/09 16:27:14;;;;;;;;;;;21.90;99.90;;;;;;5014240;28;20115;-76
2023/07/09 16:29:40;;;;;;;;;;;21.60;99.90;;;;;;5012915;28;20003;-78
2023/07/09 16:32:06;;;;;;;;;;;21.40;99.90;;;;;;5014107;28;20360;-76
2023/07/09 16:34:31;;;;;;;;;;;21.20;99.90;;;;;;5013474;28;19917;-80
2023/07/09 16:36:57;;;;;;;;;;;21.10;99.90;;;;;;5012521;28;19975;-74
2023/07/09 16:39:23;;;;;;;;;;;21.00;99.90;;;;;;5014253;28;19921;-78
2023/07/09 16:41:48;;;;;;;;;;;20.80;99.90;;;;;;5032359;28;19917;-73
2023/07/09 16:44:14;;;;;;;;;;;20.80;99.90;;;;;;5033791;28;20377;-76
2023/07/09 16:46:39;;;;;;;;;;;20.80;99.90;;;;;;5033497;28;19924;-78
2023/07/09 16:49:21;;;;;;;;;;;20.80;99.90;;;;;;5033514;28;20002;-77
2023/07/09 16:51:46;;;;;;;;;;;20.80;99.90;;;;;;5032230;28;19921;-78
2023/07/09 16:54:12;;;;;;;;;;;20.80;99.90;;;;;;5032450;28;19939;-77
2023/07/09 16:56:37;;;;;;;;;;;20.80;99.90;;;;;;5032569;28;19925;-77
2023/07/09 16:59:03;;;;;;;;;;;20.80;99.90;;;;;;5032319;28;20336;-77
2023/07/09 17:01:28;;;;;;;;;;;20.80;99.90;;;;;;5015609;28;19966;-76
2023/07/09 17:03:54;;;;;;;;;;;20.80;99.90;;;;;;5032013;28;19970;-78
2023/07/09 17:06:19;;;;;;;;;;;20.80;99.90;;;;;;5033623;28;19917;-78
2023/07/09 17:08:45;;;;;;;;;;;20.80;99.90;;;;;;5015661;28;19917;-77
2023/07/09 17:11:10;;;;;;;;;;;20.80;99.90;;;;;;5033786;28;19917;-76
2023/07/09 17:13:36;;;;;;;;;;;20.90;99.90;;;;;;5032031;28;19929;-77
2023/07/09 17:16:02;;;;;;;;;;;20.90;99.90;;;;;;5033285;28;19917;-78
2023/07/09 17:18:28;;;;;;;;;;;20.90;99.90;;;;;;5033199;28;19916;-78
2023/07/09 17:20:55;;;;;;;;;;;21.00;99.90;;;;;;5032185;28;19924;-77
2023/07/09 17:23:25;;;;;;;;;;;21.00;99.90;;;;;;5033394;28;20011;-77
2023/07/09 17:25:52;;;;;;;;;;;20.90;99.90;;;;;;5015603;28;20391;-77
2023/07/09 17:28:17;;;;;;;;;;;20.90;99.90;;;;;;5033226;28;20048;-76
2023/07/09 17:30:43;;;;;;;;;;;20.90;99.90;;;;;;5015273;28;20352;-75
2023/07/09 17:33:09;;;;;;;;;;;20.90;99.90;;;;;;5031963;28;19963;-77
2023/07/09 17:35:35;;;;;;;;;;;20.90;99.90;;;;;;5031883;28;19964;-75
2023/07/09 17:38:03;;;;;;;;;;;20.80;99.90;;;;;;5032046;28;20002;-78
2023/07/09 17:40:33;;;;;;;;;;;20.80;99.90;;;;;;5031898;28;20277;-77
2023/07/09 17:42:59;;;;;;;;;;;20.80;99.90;;;;;;5033336;28;19917;-77
2023/07/09 17:45:25;;;;;;;;;;;20.80;99.90;;;;;;5033709;28;19921;-75
2023/07/09 17:47:51;;;;;;;;;;;20.90;99.90;;;;;;5037098;28;20365;-74
2023/07/09 17:50:21;;;;;;;;;;;20.90;99.90;;;;;;5037616;28;19990;-75
2023/07/09 17:52:47;;;;;;;;;;;20.90;99.90;;;;;;5036754;28;19916;-77
2023/07/09 17:55:14;;;;;;;;;;;20.90;99.90;;;;;;5037436;28;19923;-77
2023/07/09 17:57:40;;;;;;;;;;;20.90;99.90;;;;;;5035423;28;19917;-77
2023/07/09 18:00:10;;;;;;;;;;;21.00;99.90;;;;;;5035163;28;20345;-78
2023/07/09 18:02:37;;;;;;;;;;;20.90;99.90;;;;;;5035474;28;20331;-79
2023/07/09 18:05:19;;;;;;;;;;;21.00;99.90;;;;;;5035157;28;20378;-75
2023/07/09 18:07:46;;;;;;;;;;;20.90;99.90;;;;;;5036618;28;19924;-75
2023/07/09 18:10:11;;;;;;;;;;;20.90;99.90;;;;;;5034815;28;19960;-76
2023/07/09 18:12:37;;;;;;;;;;;20.90;99.90;;;;;;5034870;28;19917;-79
2023/07/09 18:15:03;;;;;;;;;;;20.90;99.90;;;;;;5036837;28;19967;-76
2023/07/09 18:17:33;;;;;;;;;;;20.90;99.90;;;;;;5035339;28;19983;-76
2023/07/09 18:19:59;;;;;;;;;;;20.90;99.90;;;;;;5034824;28;19917;-78